createdAt,value
2023-02-02T00:02:09.659Z,79.52
2023-02-02T00:04:37.224Z,79.67
2023-02-02T00:07:05.334Z,79.89
2023-02-02T00:09:33.170Z,79.97
2023-02-02T00:12:01.173Z,80.17
2023-02-02T00:14:28.019Z,79.74
2023-02-02T00:16:56.698Z,79.69
2023-02-02T00:19:26.891Z,80.18
2023-02-02T00:21:54.851Z,80.40
2023-02-02T00:24:22.397Z,80.22
2023-02-02T00:26:57.614Z,80.47
2023-02-02T00:29:30.127Z,80.45
2023-02-02T00:31:57.742Z,80.80
2023-02-02T00:34:24.935Z,80.77
2023-02-02T00:36:52.708Z,80.82
2023-02-02T00:39:22.384Z,80.85
2023-02-02T00:41:49.570Z,80.86
2023-02-02T00:44:34.878Z,80.71
2023-02-02T00:47:02.549Z,80.82
2023-02-02T00:49:29.969Z,81.02
2023-02-02T00:52:00.349Z,81.11
2023-02-02T00:54:27.594Z,81.07
2023-02-02T00:56:54.556Z,80.96
2023-02-02T00:59:21.283Z,81.00
2023-02-02T01:01:48.035Z,81.01
2023-02-02T01:04:14.850Z,80.80
2023-02-02T01:06:42.184Z,80.66
2023-02-02T01:09:08.961Z,81.02
2023-02-02T01:11:35.765Z,81.08
2023-02-02T01:14:02.902Z,81.00
2023-02-02T01:16:29.737Z,80.48
2023-02-02T01:18:56.772Z,80.96
2023-02-02T01:21:23.725Z,80.68
2023-02-02T01:23:50.502Z,81.36
2023-02-02T01:26:18.265Z,81.33
2023-02-02T01:28:45.547Z,81.15
2023-02-02T01:31:16.246Z,80.98
2023-02-02T01:33:44.198Z,80.77
2023-02-02T01:36:16.988Z,81.05
2023-02-02T01:38:44.378Z,81.07
2023-02-02T01:41:25.483Z,80.64
2023-02-02T01:43:55.928Z,80.38
2023-02-02T01:46:24.265Z,80.76
2023-02-02T01:48:57.042Z,80.91
2023-02-02T01:51:29.637Z,80.42
2023-02-02T01:53:59.075Z,80.56
2023-02-02T01:56:31.224Z,80.87
2023-02-02T01:58:58.982Z,80.40
2023-02-02T02:01:26.884Z,80.82
2023-02-02T02:03:54.224Z,80.50
2023-02-02T02:06:21.193Z,80.54
2023-02-02T02:08:57.873Z,80.40
2023-02-02T02:11:25.142Z,80.27
2023-02-02T02:14:14.434Z,80.61
2023-02-02T02:17:00.179Z,80.26
2023-02-02T02:20:02.582Z,80.62
2023-02-02T02:23:21.225Z,80.47
2023-02-02T02:26:36.128Z,80.57
2023-02-02T02:29:38.899Z,80.42
2023-02-02T02:32:19.335Z,80.65
2023-02-02T02:34:49.290Z,80.07
2023-02-02T02:37:28.135Z,80.68
2023-02-02T02:40:17.865Z,80.03
2023-02-02T02:42:51.016Z,80.33
2023-02-02T02:45:19.206Z,80.29
2023-02-02T02:47:47.422Z,80.67
2023-02-02T02:50:14.168Z,80.87
2023-02-02T02:52:41.395Z,80.97
2023-02-02T02:55:10.599Z,80.35
2023-02-02T02:57:52.999Z,80.40
2023-02-02T03:00:31.881Z,80.42
2023-02-02T03:03:26.680Z,80.40
2023-02-02T03:06:14.630Z,80.72
2023-02-02T03:08:48.985Z,80.46
2023-02-02T03:11:16.571Z,80.01
2023-02-02T03:13:43.829Z,80.28
2023-02-02T03:16:11.457Z,80.35
2023-02-02T03:18:39.014Z,80.46
2023-02-02T03:21:05.827Z,80.41
2023-02-02T03:23:32.561Z,80.51
2023-02-02T03:25:59.778Z,80.65
2023-02-02T03:28:28.074Z,80.42
2023-02-02T03:30:56.079Z,80.40
2023-02-02T03:33:23.069Z,80.32
2023-02-02T03:35:49.882Z,80.49
2023-02-02T03:38:16.560Z,80.50
2023-02-02T03:40:43.277Z,80.43
2023-02-02T03:43:09.937Z,80.13
2023-02-02T03:45:37.323Z,80.22
2023-02-02T03:48:05.686Z,80.28
2023-02-02T03:50:33.279Z,80.27
2023-02-02T03:53:00.322Z,80.27
2023-02-02T03:55:27.095Z,80.35
2023-02-02T03:57:53.785Z,80.08
2023-02-02T04:00:21.365Z,80.30
2023-02-02T04:02:48.063Z,79.82
2023-02-02T04:05:14.874Z,79.26
2023-02-02T04:07:41.562Z,79.70
2023-02-02T04:10:08.814Z,79.71
2023-02-02T04:12:35.439Z,79.62
2023-02-02T04:15:02.127Z,79.65
2023-02-02T04:17:28.741Z,79.84
2023-02-02T04:19:58.204Z,79.33
2023-02-02T04:22:25.908Z,79.55
2023-02-02T04:24:52.715Z,79.49
2023-02-02T04:27:22.402Z,79.50
2023-02-02T04:29:49.046Z,79.85
2023-02-02T04:32:16.830Z,79.48
2023-02-02T04:34:43.797Z,79.71
2023-02-02T04:37:11.511Z,79.32
2023-02-02T04:39:38.152Z,79.33
2023-02-02T04:42:04.956Z,80.68
2023-02-02T04:44:31.655Z,79.93
2023-02-02T04:46:58.340Z,80.43
2023-02-02T04:49:25.003Z,80.03
2023-02-02T04:51:51.648Z,80.02
2023-02-02T04:54:18.362Z,79.41
2023-02-02T04:56:45.163Z,79.38
2023-02-02T04:59:11.794Z,79.19
2023-02-02T05:01:38.465Z,79.37
2023-02-02T05:04:05.297Z,79.41
2023-02-02T05:06:31.933Z,79.36
2023-02-02T05:09:04.642Z,79.18
2023-02-02T05:11:31.371Z,79.29
2023-02-02T05:13:58.001Z,79.25
2023-02-02T05:16:27.053Z,79.03
2023-02-02T05:18:56.897Z,79.38
2023-02-02T05:21:23.816Z,79.10
2023-02-02T05:23:50.649Z,79.74
2023-02-02T05:26:27.158Z,79.31
2023-02-02T05:28:53.941Z,79.54
2023-02-02T05:31:21.020Z,79.90
2023-02-02T05:33:47.772Z,79.62
2023-02-02T05:36:15.620Z,79.67
2023-02-02T05:38:42.363Z,79.58
2023-02-02T05:41:09.088Z,79.54
2023-02-02T05:43:35.961Z,80.04
2023-02-02T05:46:02.753Z,79.66
2023-02-02T05:48:29.485Z,79.58
2023-02-02T05:51:21.806Z,79.27
2023-02-02T05:53:48.479Z,79.13
2023-02-02T05:56:16.218Z,78.92
2023-02-02T05:58:44.445Z,78.97
2023-02-02T06:01:11.224Z,79.26
2023-02-02T06:03:37.980Z,79.18
2023-02-02T06:06:06.929Z,79.14
2023-02-02T06:08:34.667Z,78.91
2023-02-02T06:11:09.575Z,79.05
2023-02-02T06:13:36.615Z,78.93
2023-02-02T06:16:03.437Z,78.89
2023-02-02T06:18:30.642Z,78.83
2023-02-02T06:20:58.591Z,78.83
2023-02-02T06:23:25.529Z,78.80
2023-02-02T06:25:52.196Z,78.96
2023-02-02T06:28:18.955Z,79.03
2023-02-02T06:30:45.863Z,78.94
2023-02-02T06:33:12.615Z,79.75
2023-02-02T06:35:39.298Z,79.53
2023-02-02T06:38:05.954Z,79.07
2023-02-02T06:40:32.607Z,79.15
2023-02-02T06:43:01.032Z,79.14
2023-02-02T06:45:29.214Z,80.09
2023-02-02T06:48:00.801Z,80.03
2023-02-02T06:50:27.422Z,80.43
2023-02-02T06:52:54.080Z,80.16
2023-02-02T06:55:20.747Z,79.57
2023-02-02T06:57:47.713Z,80.08
2023-02-02T07:00:15.034Z,80.19
2023-02-02T07:02:45.935Z,80.44
2023-02-02T07:05:12.663Z,80.55
2023-02-02T07:07:39.280Z,80.83
2023-02-02T07:10:06.328Z,80.93
2023-02-02T07:12:32.961Z,81.18
2023-02-02T07:14:59.837Z,81.23
2023-02-02T07:17:26.446Z,81.34
2023-02-02T07:19:53.144Z,81.03
2023-02-02T07:22:19.834Z,81.11
2023-02-02T07:24:46.723Z,80.99
2023-02-02T07:27:13.754Z,81.13
2023-02-02T07:29:40.570Z,80.94
2023-02-02T07:32:07.271Z,81.16
2023-02-02T07:34:33.881Z,81.01
2023-02-02T07:37:00.555Z,81.12
2023-02-02T07:39:27.181Z,81.31
2023-02-02T07:41:53.858Z,80.76
2023-02-02T07:44:30.706Z,80.25
2023-02-02T07:46:57.327Z,80.34
2023-02-02T07:49:23.943Z,80.69
2023-02-02T07:51:50.674Z,80.14
2023-02-02T07:54:17.341Z,80.34
2023-02-02T07:56:43.994Z,80.34
2023-02-02T07:59:11.565Z,80.42
2023-02-02T08:01:38.267Z,80.33
2023-02-02T08:04:05.035Z,79.95
2023-02-02T08:06:37.475Z,80.03
2023-02-02T08:09:07.713Z,79.82
2023-02-02T08:11:35.853Z,79.73
2023-02-02T08:14:03.718Z,80.10
2023-02-02T08:16:32.029Z,80.42
2023-02-02T08:18:59.082Z,80.63
2023-02-02T08:21:25.836Z,80.21
2023-02-02T08:23:53.779Z,80.21
2023-02-02T08:26:23.495Z,80.27
2023-02-02T08:28:59.250Z,80.37
2023-02-02T08:31:37.810Z,80.61
2023-02-02T08:34:05.032Z,80.50
2023-02-02T08:36:33.022Z,80.50
2023-02-02T08:39:05.475Z,80.51
2023-02-02T08:41:32.631Z,80.63
2023-02-02T08:43:59.561Z,81.06
2023-02-02T08:46:26.650Z,80.94
2023-02-02T08:48:53.321Z,80.93
2023-02-02T08:51:20.678Z,80.35
2023-02-02T08:53:47.682Z,80.54
2023-02-02T08:56:22.509Z,80.35
2023-02-02T08:58:58.096Z,79.90
2023-02-02T09:01:30.121Z,80.23
2023-02-02T09:03:58.817Z,80.06
2023-02-02T09:06:30.507Z,80.02
2023-02-02T09:08:57.125Z,79.73
2023-02-02T09:11:23.873Z,79.56
2023-02-02T09:13:57.790Z,79.05
2023-02-02T09:16:26.283Z,78.94
2023-02-02T09:18:53.821Z,78.64
2023-02-02T09:21:21.189Z,79.00
2023-02-02T09:23:50.746Z,78.69
2023-02-02T09:26:25.656Z,78.88
2023-02-02T09:28:55.291Z,78.83
2023-02-02T09:31:22.324Z,78.48
2023-02-02T09:33:49.287Z,78.89
2023-02-02T09:36:21.332Z,78.84
2023-02-02T09:38:49.194Z,78.78
2023-02-02T09:41:37.709Z,78.32
2023-02-02T09:44:23.309Z,78.42
2023-02-02T09:47:40.674Z,78.25
2023-02-02T09:50:22.608Z,78.05
2023-02-02T09:52:58.587Z,78.58
2023-02-02T09:55:28.200Z,78.58
2023-02-02T09:58:04.174Z,78.56
2023-02-02T10:00:38.375Z,78.58
2023-02-02T10:03:15.525Z,78.44
2023-02-02T10:05:50.350Z,78.25
2023-02-02T10:08:34.297Z,77.55
2023-02-02T10:11:13.112Z,77.97
2023-02-02T10:13:43.563Z,77.12
2023-02-02T10:16:17.587Z,76.56
2023-02-02T10:18:59.643Z,76.16
2023-02-02T10:22:12.948Z,76.78
2023-02-02T10:24:39.834Z,76.00
2023-02-02T10:27:25.575Z,76.06
2023-02-02T10:30:03.858Z,75.76
2023-02-02T10:32:34.811Z,75.53
2023-02-02T10:35:36.013Z,76.11
2023-02-02T10:38:36.781Z,76.08
2023-02-02T10:41:33.757Z,75.46
2023-02-02T10:44:13.859Z,76.86
2023-02-02T10:46:45.515Z,76.50
2023-02-02T10:49:31.166Z,77.48
2023-02-02T10:52:16.603Z,77.29
2023-02-02T10:54:57.936Z,76.72
2023-02-02T10:57:45.219Z,77.04
2023-02-02T11:00:23.633Z,77.24
2023-02-02T11:02:52.566Z,77.64
2023-02-02T11:05:43.969Z,77.92
2023-02-02T11:08:16.580Z,77.66
2023-02-02T11:10:49.792Z,77.84
2023-02-02T11:13:33.552Z,78.30
2023-02-02T11:16:15.454Z,78.34
2023-02-02T11:18:44.122Z,78.53
2023-02-02T11:21:25.056Z,78.40
2023-02-02T11:23:55.971Z,77.50
2023-02-02T11:26:25.017Z,77.20
2023-02-02T11:28:54.256Z,77.53
2023-02-02T11:31:32.344Z,77.48
2023-02-02T11:34:28.791Z,76.59
2023-02-02T11:37:00.733Z,76.36
2023-02-02T11:39:28.016Z,76.31
2023-02-02T11:42:29.012Z,76.28
2023-02-02T11:44:59.793Z,76.58
2023-02-02T11:47:33.926Z,76.09
2023-02-02T11:50:02.722Z,76.85
2023-02-02T11:52:32.949Z,76.73
2023-02-02T11:55:02.954Z,77.17
2023-02-02T11:57:30.578Z,76.86
2023-02-02T12:00:17.884Z,76.59
2023-02-02T12:02:49.155Z,76.80
2023-02-02T12:05:23.515Z,76.74
2023-02-02T12:07:50.177Z,76.50
2023-02-02T12:10:28.505Z,76.69
2023-02-02T12:13:40.899Z,76.83
2023-02-02T12:16:29.993Z,76.62
2023-02-02T12:19:28.521Z,76.36
2023-02-02T12:22:04.214Z,76.37
2023-02-02T12:24:37.701Z,76.20
2023-02-02T12:27:07.276Z,76.69
2023-02-02T12:29:49.235Z,75.99
2023-02-02T12:32:26.966Z,75.97
2023-02-02T12:35:12.272Z,76.69
2023-02-02T12:38:46.971Z,76.53
2023-02-02T12:41:16.513Z,76.44
2023-02-02T12:43:50.962Z,76.47
2023-02-02T12:46:29.724Z,76.59
2023-02-02T12:49:27.911Z,76.57
2023-02-02T12:52:19.420Z,76.28
2023-02-02T12:55:16.682Z,76.26
2023-02-02T12:57:49.324Z,76.01
2023-02-02T13:00:42.398Z,76.25
2023-02-02T13:03:30.965Z,76.07
2023-02-02T13:06:19.459Z,76.05
2023-02-02T13:09:02.577Z,76.94
2023-02-02T13:11:41.422Z,77.26
2023-02-02T13:14:16.847Z,77.59
2023-02-02T13:16:50.760Z,77.55
2023-02-02T13:19:42.671Z,78.09
2023-02-02T13:22:17.020Z,78.00
2023-02-02T13:24:48.338Z,77.74
2023-02-02T13:27:19.652Z,78.03
2023-02-02T13:30:11.358Z,78.21
2023-02-02T13:32:41.639Z,79.02
2023-02-02T13:35:23.079Z,78.71
2023-02-02T13:38:06.995Z,78.62
2023-02-02T13:40:39.483Z,78.52
2023-02-02T13:43:38.561Z,78.71
2023-02-02T13:46:24.026Z,78.88
2023-02-02T13:49:13.927Z,78.98
2023-02-02T13:51:46.833Z,79.18
2023-02-02T13:54:49.228Z,78.99
2023-02-02T13:57:48.478Z,79.23
2023-02-02T14:00:28.804Z,78.97
2023-02-02T14:02:59.155Z,78.25
2023-02-02T14:05:31.899Z,78.37
2023-02-02T14:08:17.663Z,78.70
2023-02-02T14:10:53.622Z,78.74
2023-02-02T14:13:44.557Z,78.46
2023-02-02T14:16:42.539Z,78.97
2023-02-02T14:19:28.944Z,79.10
2023-02-02T14:22:12.083Z,79.20
2023-02-02T14:24:53.741Z,79.16
2023-02-02T14:27:30.024Z,79.43
2023-02-02T14:29:56.685Z,79.17
2023-02-02T14:32:29.548Z,79.22
2023-02-02T14:35:08.535Z,79.34
2023-02-02T14:37:47.070Z,78.89
2023-02-02T14:41:01.288Z,79.46
2023-02-02T14:43:44.736Z,79.50
2023-02-02T14:46:14.515Z,80.00
2023-02-02T14:48:48.560Z,79.53
2023-02-02T14:51:24.185Z,80.18
2023-02-02T14:53:55.120Z,80.13
2023-02-02T14:56:38.108Z,80.32
2023-02-02T14:59:07.389Z,80.31
2023-02-02T15:01:37.481Z,80.61
2023-02-02T15:04:24.987Z,80.62
2023-02-02T15:06:55.796Z,80.78
2023-02-02T15:09:23.273Z,81.42
2023-02-02T15:12:00.838Z,81.22
2023-02-02T15:14:53.144Z,81.57
2023-02-02T15:17:40.981Z,81.66
2023-02-02T15:20:32.439Z,81.38
2023-02-02T15:23:19.279Z,81.52
2023-02-02T15:25:57.963Z,81.90
2023-02-02T15:28:33.595Z,81.53
2023-02-02T15:31:13.236Z,80.77
2023-02-02T15:33:44.865Z,81.37
2023-02-02T15:36:14.061Z,81.60
2023-02-02T15:38:43.116Z,81.07
2023-02-02T15:41:19.237Z,81.19
2023-02-02T15:43:46.283Z,81.04
2023-02-02T15:46:16.181Z,81.08
2023-02-02T15:48:45.909Z,81.32
2023-02-02T15:51:17.679Z,80.93
2023-02-02T15:53:44.153Z,81.50
2023-02-02T15:56:23.047Z,81.94
2023-02-02T15:58:52.977Z,82.02
2023-02-02T16:01:22.327Z,81.80
2023-02-02T16:03:56.434Z,81.87
2023-02-02T16:06:23.212Z,81.99
2023-02-02T16:08:50.261Z,82.05
2023-02-02T16:11:20.860Z,81.79
2023-02-02T16:14:10.335Z,81.79
2023-02-02T16:16:42.292Z,81.58
2023-02-02T16:19:09.385Z,81.55
2023-02-02T16:21:42.782Z,81.50
2023-02-02T16:24:15.497Z,81.22
2023-02-02T16:26:42.363Z,81.44
2023-02-02T16:29:17.429Z,80.96
2023-02-02T16:31:47.746Z,81.13
2023-02-02T16:34:19.603Z,81.88
2023-02-02T16:37:12.871Z,81.91
2023-02-02T16:39:39.660Z,81.81
2023-02-02T16:42:31.620Z,81.77
2023-02-02T16:45:00.471Z,81.73
2023-02-02T16:47:27.052Z,81.70
2023-02-02T16:50:27.899Z,82.00
2023-02-02T16:52:56.284Z,82.36
2023-02-02T16:55:24.246Z,81.87
2023-02-02T16:57:51.743Z,81.96
2023-02-02T17:00:20.450Z,81.85
2023-02-02T17:02:50.144Z,81.90
2023-02-02T17:05:25.896Z,82.26
2023-02-02T17:08:04.500Z,81.68
2023-02-02T17:10:38.073Z,81.70
2023-02-02T17:13:30.325Z,81.83
2023-02-02T17:15:57.663Z,82.04
2023-02-02T17:18:24.666Z,81.81
2023-02-02T17:20:57.805Z,82.00
2023-02-02T17:23:28.639Z,81.65
2023-02-02T17:25:55.709Z,81.55
2023-02-02T17:28:25.135Z,81.58
2023-02-02T17:31:00.287Z,81.92
2023-02-02T17:33:27.317Z,82.04
2023-02-02T17:35:56.288Z,81.88
2023-02-02T17:38:24.766Z,82.14
2023-02-02T17:40:52.942Z,81.83
2023-02-02T17:43:19.794Z,81.98
2023-02-02T17:45:46.651Z,81.78
2023-02-02T17:48:14.265Z,82.21
2023-02-02T17:50:42.221Z,82.01
2023-02-02T17:53:14.177Z,82.06
2023-02-02T17:55:42.710Z,82.08
2023-02-02T17:58:13.084Z,82.02
2023-02-02T18:00:40.459Z,82.14
2023-02-02T18:03:14.312Z,82.59
2023-02-02T18:05:43.436Z,82.36
2023-02-02T18:08:12.218Z,82.20
2023-02-02T18:10:39.639Z,82.29
2023-02-02T18:13:06.475Z,82.38
2023-02-02T18:15:35.139Z,82.36
2023-02-02T18:18:02.341Z,81.77
2023-02-02T18:20:29.055Z,82.10
2023-02-02T18:22:55.809Z,82.08
2023-02-02T18:25:24.710Z,81.80
2023-02-02T18:27:53.885Z,81.81
2023-02-02T18:30:22.044Z,81.28
2023-02-02T18:32:49.896Z,81.91
2023-02-02T18:35:16.754Z,82.04
2023-02-02T18:37:43.473Z,82.07
2023-02-02T18:40:11.099Z,82.03
2023-02-02T18:42:37.833Z,81.69
2023-02-02T18:45:06.055Z,82.08
2023-02-02T18:47:32.890Z,82.08
2023-02-02T18:49:59.544Z,82.21
2023-02-02T18:52:26.227Z,82.10
2023-02-02T18:54:52.871Z,82.22
2023-02-02T18:57:19.571Z,82.24
2023-02-02T18:59:46.245Z,82.21
2023-02-02T19:02:18.550Z,81.65
2023-02-02T19:05:05.006Z,81.65
2023-02-02T19:07:50.849Z,81.91
2023-02-02T19:10:18.454Z,82.09
2023-02-02T19:13:10.146Z,82.34
2023-02-02T19:15:39.297Z,82.35
2023-02-02T19:18:16.369Z,82.10
2023-02-02T19:20:44.570Z,81.98
2023-02-02T19:23:17.079Z,81.91
2023-02-02T19:25:50.740Z,82.34
2023-02-02T19:28:28.346Z,82.26
2023-02-02T19:31:00.994Z,82.37
2023-02-02T19:33:41.830Z,82.28
2023-02-02T19:36:20.585Z,82.00
2023-02-02T19:38:49.469Z,82.40
2023-02-02T19:41:21.134Z,82.44
2023-02-02T19:43:49.728Z,82.42
2023-02-02T19:46:25.510Z,82.72
2023-02-02T19:49:07.495Z,82.44
2023-02-02T19:51:46.051Z,82.52
2023-02-02T19:54:36.029Z,82.38
2023-02-02T19:57:05.916Z,82.10
2023-02-02T19:59:35.382Z,81.95
2023-02-02T20:02:29.300Z,82.34
2023-02-02T20:05:06.423Z,82.40
2023-02-02T20:07:33.233Z,82.72
2023-02-02T20:10:20.962Z,83.15
2023-02-02T20:12:51.710Z,82.96
2023-02-02T20:15:32.648Z,82.92
2023-02-02T20:18:02.555Z,82.52
2023-02-02T20:20:37.001Z,82.61
2023-02-02T20:23:17.551Z,82.48
2023-02-02T20:25:44.359Z,82.37
2023-02-02T20:28:43.235Z,82.53
2023-02-02T20:31:13.523Z,82.49
2023-02-02T20:33:45.059Z,82.56
2023-02-02T20:36:26.987Z,82.34
2023-02-02T20:38:53.672Z,82.26
2023-02-02T20:41:20.549Z,82.08
2023-02-02T20:43:47.250Z,82.22
2023-02-02T20:46:15.268Z,82.37
2023-02-02T20:48:42.189Z,82.20
2023-02-02T20:51:11.411Z,82.17
2023-02-02T20:53:39.538Z,82.40
2023-02-02T20:56:06.583Z,82.40
2023-02-02T20:58:33.370Z,82.59
2023-02-02T21:01:05.280Z,82.44
2023-02-02T21:03:32.923Z,82.30
2023-02-02T21:06:00.081Z,82.14
2023-02-02T21:08:26.788Z,82.37
2023-02-02T21:10:53.958Z,82.00
2023-02-02T21:13:20.917Z,81.95
2023-02-02T21:15:48.350Z,82.73
2023-02-02T21:18:15.130Z,82.49
2023-02-02T21:20:41.810Z,82.10
2023-02-02T21:23:10.478Z,82.47
2023-02-02T21:25:37.235Z,82.69
2023-02-02T21:28:04.256Z,82.46
2023-02-02T21:30:31.308Z,82.57
2023-02-02T21:32:58.652Z,82.57
2023-02-02T21:35:26.770Z,82.27
2023-02-02T21:37:56.723Z,82.23
2023-02-02T21:44:44.880Z,82.07
2023-02-02T21:47:33.686Z,82.16
2023-02-02T21:50:25.903Z,82.52
2023-02-02T21:53:21.304Z,82.46
2023-02-02T21:55:52.189Z,82.61
2023-02-02T21:58:35.958Z,82.16
2023-02-02T22:01:16.706Z,82.44
2023-02-02T22:03:46.649Z,82.37
2023-02-02T22:06:33.544Z,82.50
2023-02-02T22:09:12.419Z,82.75
2023-02-02T22:11:46.792Z,82.67
2023-02-02T22:14:18.924Z,82.43
2023-02-02T22:16:50.283Z,82.50
2023-02-02T22:19:35.195Z,81.88
2023-02-02T22:22:13.327Z,82.58
2023-02-02T22:24:40.277Z,82.32
2023-02-02T22:27:25.050Z,82.47
2023-02-02T22:33:38.982Z,81.58
2023-02-02T22:36:05.931Z,82.42
2023-02-02T22:38:32.811Z,82.37
2023-02-02T22:40:59.676Z,82.41
2023-02-02T22:43:26.373Z,82.19
2023-02-02T22:45:53.269Z,82.22
2023-02-02T22:48:20.220Z,82.19
2023-02-02T22:50:47.235Z,82.63
2023-02-02T22:53:15.460Z,82.13
2023-02-02T22:55:43.396Z,82.27
2023-02-02T22:58:10.000Z,82.35
2023-02-02T23:00:37.671Z,82.53
2023-02-02T23:03:07.488Z,82.33
2023-02-02T23:05:34.269Z,82.57
2023-02-02T23:08:01.065Z,82.42
2023-02-02T23:10:29.552Z,82.25
2023-02-02T23:12:58.500Z,82.48
2023-02-02T23:15:25.594Z,82.21
2023-02-02T23:17:52.597Z,82.15
2023-02-02T23:20:19.772Z,82.30
2023-02-02T23:22:46.418Z,82.66
2023-02-02T23:25:14.127Z,82.28
2023-02-02T23:27:41.810Z,82.21
2023-02-02T23:30:09.937Z,81.99
2023-02-02T23:32:36.611Z,81.92
2023-02-02T23:35:04.099Z,82.23
2023-02-02T23:37:30.909Z,82.02
2023-02-02T23:39:57.532Z,81.98
2023-02-02T23:42:25.645Z,81.26
2023-02-02T23:44:52.661Z,80.71
2023-02-02T23:47:19.564Z,81.23
2023-02-02T23:49:46.328Z,81.43
2023-02-02T23:52:13.421Z,81.03
2023-02-02T23:54:40.473Z,81.36
2023-02-02T23:57:07.166Z,82.04
2023-02-02T23:59:33.860Z,81.94
